sensor_id;sensor_type;location;lat;lon;timestamp;temperature;humidity
21678;DHT22;11000;50.360;7.582;2023-03-19T00:01:49;11.20;99.90
21678;DHT22;11000;50.360;7.582;2023-03-19T00:04:10;11.20;99.90
21678;DHT22;11000;50.360;7.582;2023-03-19T00:06:30;11.20;99.90
21678;DHT22;11000;50.360;7.582;2023-03-19T00:08:51;11.30;99.90
21678;DHT22;11000;50.360;7.582;2023-03-19T00:11:12;11.20;99.90
21678;DHT22;11000;50.360;7.582;2023-03-19T00:13:33;11.20;99.90
21678;DHT22;11000;50.360;7.582;2023-03-19T00:15:53;11.20;99.90
21678;DHT22;11000;50.360;7.582;2023-03-19T00:18:14;11.20;99.90
21678;DHT22;11000;50.360;7.582;2023-03-19T00:20:35;11.10;99.90
21678;DHT22;11000;50.360;7.582;2023-03-19T00:22:55;11.10;99.90
21678;DHT22;11000;50.360;7.582;2023-03-19T00:25:16;10.90;99.90
21678;DHT22;11000;50.360;7.582;2023-03-19T00:27:37;10.90;99.90
21678;DHT22;11000;50.360;7.582;2023-03-19T00:29:57;10.90;99.90
21678;DHT22;11000;50.360;7.582;2023-03-19T00:32:18;10.80;99.90
21678;DHT22;11000;50.360;7.582;2023-03-19T00:34:38;10.90;99.90
21678;DHT22;11000;50.360;7.582;2023-03-19T00:36:59;10.80;99.90
21678;DHT22;11000;50.360;7.582;2023-03-19T00:39:20;10.60;99.90
21678;DHT22;11000;50.360;7.582;2023-03-19T00:41:41;10.60;99.90
21678;DHT22;11000;50.360;7.582;2023-03-19T00:44:01;10.60;99.90
21678;DHT22;11000;50.360;7.582;2023-03-19T00:46:23;10.70;99.90
21678;DHT22;11000;50.360;7.582;2023-03-19T00:48:44;10.70;99.90
21678;DHT22;11000;50.360;7.582;2023-03-19T00:51:07;10.70;99.90
21678;DHT22;11000;50.360;7.582;2023-03-19T00:53:28;10.70;99.90
21678;DHT22;11000;50.360;7.582;2023-03-19T00:55:48;10.70;99.90
21678;DHT22;11000;50.360;7.582;2023-03-19T00:58:09;10.80;99.90
21678;DHT22;11000;50.360;7.582;2023-03-19T01:00:30;10.70;99.90
21678;DHT22;11000;50.360;7.582;2023-03-19T01:02:50;10.70;99.90
21678;DHT22;11000;50.360;7.582;2023-03-19T01:05:12;10.70;99.90
21678;DHT22;11000;50.360;7.582;2023-03-19T01:07:32;10.60;99.90
21678;DHT22;11000;50.360;7.582;2023-03-19T01:09:53;10.60;99.90
21678;DHT22;11000;50.360;7.582;2023-03-19T01:12:14;10.60;99.90
21678;DHT22;11000;50.360;7.582;2023-03-19T01:14:35;10.60;99.90
21678;DHT22;11000;50.360;7.582;2023-03-19T01:16:56;10.60;99.90
21678;DHT22;11000;50.360;7.582;2023-03-19T01:19:17;10.60;99.90
21678;DHT22;11000;50.360;7.582;2023-03-19T01:21:37;10.50;99.90
21678;DHT22;11000;50.360;7.582;2023-03-19T01:23:58;10.60;99.90
21678;DHT22;11000;50.360;7.582;2023-03-19T01:26:18;10.60;99.90
21678;DHT22;11000;50.360;7.582;2023-03-19T01:28:39;10.60;99.90
21678;DHT22;11000;50.360;7.582;2023-03-19T01:31:00;10.60;99.90
21678;DHT22;11000;50.360;7.582;2023-03-19T01:33:21;10.60;99.90
21678;DHT22;11000;50.360;7.582;2023-03-19T01:35:45;10.60;99.90
21678;DHT22;11000;50.360;7.582;2023-03-19T01:38:07;10.60;99.90
21678;DHT22;11000;50.360;7.582;2023-03-19T01:40:27;10.60;99.90
21678;DHT22;11000;50.360;7.582;2023-03-19T01:42:56;10.50;99.90
21678;DHT22;11000;50.360;7.582;2023-03-19T01:45:37;10.60;99.90
21678;DHT22;11000;50.360;7.582;2023-03-19T01:47:58;10.50;99.90
21678;DHT22;11000;50.360;7.582;2023-03-19T01:50:24;10.50;99.90
21678;DHT22;11000;50.360;7.582;2023-03-19T01:52:46;10.40;99.90
21678;DHT22;11000;50.360;7.582;2023-03-19T01:55:08;10.40;99.90
21678;DHT22;11000;50.360;7.582;2023-03-19T01:57:29;10.50;99.90
21678;DHT22;11000;50.360;7.582;2023-03-19T01:59:52;10.40;99.90
21678;DHT22;11000;50.360;7.582;2023-03-19T02:02:40;10.40;99.90
21678;DHT22;11000;50.360;7.582;2023-03-19T02:05:10;10.40;99.90
21678;DHT22;11000;50.360;7.582;2023-03-19T02:07:33;10.40;99.90
21678;DHT22;11000;50.360;7.582;2023-03-19T02:09:54;10.40;99.90
21678;DHT22;11000;50.360;7.582;2023-03-19T02:12:15;10.50;99.90
21678;DHT22;11000;50.360;7.582;2023-03-19T02:14:36;10.40;99.90
21678;DHT22;11000;50.360;7.582;2023-03-19T02:16:57;10.30;99.90
21678;DHT22;11000;50.360;7.582;2023-03-19T02:19:48;10.30;99.90
21678;DHT22;11000;50.360;7.582;2023-03-19T02:22:09;10.30;99.90
21678;DHT22;11000;50.360;7.582;2023-03-19T02:24:40;10.20;99.90
21678;DHT22;11000;50.360;7.582;2023-03-19T02:27:06;10.20;99.90
21678;DHT22;11000;50.360;7.582;2023-03-19T02:29:28;10.20;99.90
21678;DHT22;11000;50.360;7.582;2023-03-19T02:31:48;10.10;99.90
21678;DHT22;11000;50.360;7.582;2023-03-19T02:36:35;10.10;99.90
21678;DHT22;11000;50.360;7.582;2023-03-19T02:39:01;10.10;99.90
21678;DHT22;11000;50.360;7.582;2023-03-19T02:41:23;10.10;99.90
21678;DHT22;11000;50.360;7.582;2023-03-19T02:43:44;10.00;99.90
21678;DHT22;11000;50.360;7.582;2023-03-19T02:46:07;10.00;99.90
21678;DHT22;11000;50.360;7.582;2023-03-19T02:48:29;10.00;99.90
21678;DHT22;11000;50.360;7.582;2023-03-19T02:50:49;10.00;99.90
21678;DHT22;11000;50.360;7.582;2023-03-19T02:53:10;9.90;99.90
21678;DHT22;11000;50.360;7.582;2023-03-19T02:55:31;9.90;99.90
21678;DHT22;11000;50.360;7.582;2023-03-19T02:57:51;9.90;99.90
21678;DHT22;11000;50.360;7.582;2023-03-19T03:00:12;9.80;99.90
21678;DHT22;11000;50.360;7.582;2023-03-19T03:02:33;9.70;99.90
21678;DHT22;11000;50.360;7.582;2023-03-19T03:04:53;9.60;99.90
21678;DHT22;11000;50.360;7.582;2023-03-19T03:07:14;9.60;99.90
21678;DHT22;11000;50.360;7.582;2023-03-19T03:09:34;9.60;99.90
21678;DHT22;11000;50.360;7.582;2023-03-19T03:11:55;9.60;99.90
21678;DHT22;11000;50.360;7.582;2023-03-19T03:14:16;9.70;99.90
21678;DHT22;11000;50.360;7.582;2023-03-19T03:16:37;9.60;99.90
21678;DHT22;11000;50.360;7.582;2023-03-19T03:18:57;9.60;99.90
21678;DHT22;11000;50.360;7.582;2023-03-19T03:21:18;9.60;99.90
21678;DHT22;11000;50.360;7.582;2023-03-19T03:23:40;9.60;99.90
21678;DHT22;11000;50.360;7.582;2023-03-19T03:26:01;9.50;99.90
21678;DHT22;11000;50.360;7.582;2023-03-19T03:28:22;9.50;99.90
21678;DHT22;11000;50.360;7.582;2023-03-19T03:30:42;9.50;99.90
21678;DHT22;11000;50.360;7.582;2023-03-19T03:33:03;9.50;99.90
21678;DHT22;11000;50.360;7.582;2023-03-19T03:35:23;9.40;99.90
21678;DHT22;11000;50.360;7.582;2023-03-19T03:37:44;9.40;99.90
21678;DHT22;11000;50.360;7.582;2023-03-19T03:40:05;9.40;99.90
21678;DHT22;11000;50.360;7.582;2023-03-19T03:42:27;9.40;99.90
21678;DHT22;11000;50.360;7.582;2023-03-19T03:44:48;9.40;99.90
21678;DHT22;11000;50.360;7.582;2023-03-19T03:47:08;9.40;99.90
21678;DHT22;11000;50.360;7.582;2023-03-19T03:49:29;9.40;99.90
21678;DHT22;11000;50.360;7.582;2023-03-19T03:51:49;9.40;99.90
21678;DHT22;11000;50.360;7.582;2023-03-19T03:54:10;9.40;99.90
21678;DHT22;11000;50.360;7.582;2023-03-19T03:56:31;9.30;99.90
21678;DHT22;11000;50.360;7.582;2023-03-19T03:58:52;9.40;99.90
21678;DHT22;11000;50.360;7.582;2023-03-19T04:01:14;9.40;99.90
21678;DHT22;11000;50.360;7.582;2023-03-19T04:03:35;9.50;99.90
21678;DHT22;11000;50.360;7.582;2023-03-19T04:05:56;9.50;99.90
21678;DHT22;11000;50.360;7.582;2023-03-19T04:08:16;9.40;99.90
21678;DHT22;11000;50.360;7.582;2023-03-19T04:10:41;9.40;99.90
21678;DHT22;11000;50.360;7.582;2023-03-19T04:13:02;9.50;99.90
21678;DHT22;11000;50.360;7.582;2023-03-19T04:15:22;9.30;99.90
21678;DHT22;11000;50.360;7.582;2023-03-19T04:17:43;9.30;99.90
21678;DHT22;11000;50.360;7.582;2023-03-19T04:20:05;9.10;99.90
21678;DHT22;11000;50.360;7.582;2023-03-19T04:22:27;9.10;99.90
21678;DHT22;11000;50.360;7.582;2023-03-19T04:24:48;9.10;99.90
21678;DHT22;11000;50.360;7.582;2023-03-19T04:27:08;9.10;99.90
21678;DHT22;11000;50.360;7.582;2023-03-19T04:29:29;9.00;99.90
21678;DHT22;11000;50.360;7.582;2023-03-19T04:31:49;9.10;99.90
21678;DHT22;11000;50.360;7.582;2023-03-19T04:34:10;9.20;99.90
21678;DHT22;11000;50.360;7.582;2023-03-19T04:36:31;9.20;99.90
21678;DHT22;11000;50.360;7.582;2023-03-19T04:38:52;9.20;99.90
21678;DHT22;11000;50.360;7.582;2023-03-19T04:41:13;9.20;99.90
21678;DHT22;11000;50.360;7.582;2023-03-19T04:43:35;9.20;99.90
21678;DHT22;11000;50.360;7.582;2023-03-19T04:45:56;9.20;99.90
21678;DHT22;11000;50.360;7.582;2023-03-19T04:48:17;9.20;99.90
21678;DHT22;11000;50.360;7.582;2023-03-19T04:50:38;9.20;99.90
21678;DHT22;11000;50.360;7.582;2023-03-19T04:52:59;9.10;99.90
21678;DHT22;11000;50.360;7.582;2023-03-19T04:55:20;9.10;99.90
21678;DHT22;11000;50.360;7.582;2023-03-19T04:57:41;9.00;99.90
21678;DHT22;11000;50.360;7.582;2023-03-19T05:00:01;9.00;99.90
21678;DHT22;11000;50.360;7.582;2023-03-19T05:02:22;9.00;99.90
21678;DHT22;11000;50.360;7.582;2023-03-19T05:04:43;9.00;99.90
21678;DHT22;11000;50.360;7.582;2023-03-19T05:07:03;9.00;99.90
21678;DHT22;11000;50.360;7.582;2023-03-19T05:09:24;9.00;99.90
21678;DHT22;11000;50.360;7.582;2023-03-19T05:11:45;8.90;99.90
21678;DHT22;11000;50.360;7.582;2023-03-19T05:14:06;8.80;99.90
21678;DHT22;11000;50.360;7.582;2023-03-19T05:16:27;8.80;99.90
21678;DHT22;11000;50.360;7.582;2023-03-19T05:18:47;8.70;99.90
21678;DHT22;11000;50.360;7.582;2023-03-19T05:21:10;8.80;99.90
21678;DHT22;11000;50.360;7.582;2023-03-19T05:23:31;8.80;99.90
21678;DHT22;11000;50.360;7.582;2023-03-19T05:25:51;8.80;99.90
21678;DHT22;11000;50.360;7.582;2023-03-19T05:28:12;8.90;99.90
21678;DHT22;11000;50.360;7.582;2023-03-19T05:30:34;8.80;99.90
21678;DHT22;11000;50.360;7.582;2023-03-19T05:32:57;8.80;99.90
21678;DHT22;11000;50.360;7.582;2023-03-19T05:35:19;8.90;99.90
21678;DHT22;11000;50.360;7.582;2023-03-19T05:37:39;8.90;99.90
21678;DHT22;11000;50.360;7.582;2023-03-19T05:40:00;8.90;99.90
21678;DHT22;11000;50.360;7.582;2023-03-19T05:42:21;8.90;99.90
21678;DHT22;11000;50.360;7.582;2023-03-19T05:44:42;8.90;99.90
21678;DHT22;11000;50.360;7.582;2023-03-19T05:47:03;9.00;99.90
21678;DHT22;11000;50.360;7.582;2023-03-19T05:49:23;9.00;99.90
21678;DHT22;11000;50.360;7.582;2023-03-19T05:51:45;9.00;99.90
21678;DHT22;11000;50.360;7.582;2023-03-19T05:54:05;9.00;99.90
21678;DHT22;11000;50.360;7.582;2023-03-19T05:56:26;9.00;99.90
21678;DHT22;11000;50.360;7.582;2023-03-19T05:58:47;9.00;99.90
21678;DHT22;11000;50.360;7.582;2023-03-19T06:01:07;9.10;99.90
21678;DHT22;11000;50.360;7.582;2023-03-19T06:03:28;9.10;99.90
21678;DHT22;11000;50.360;7.582;2023-03-19T06:05:49;9.10;99.90
21678;DHT22;11000;50.360;7.582;2023-03-19T06:08:10;9.10;99.90
21678;DHT22;11000;50.360;7.582;2023-03-19T06:10:33;9.10;99.90
21678;DHT22;11000;50.360;7.582;2023-03-19T06:12:54;9.10;99.90
21678;DHT22;11000;50.360;7.582;2023-03-19T06:15:14;9.10;99.90
21678;DHT22;11000;50.360;7.582;2023-03-19T06:17:36;9.10;99.90
21678;DHT22;11000;50.360;7.582;2023-03-19T06:19:56;9.10;99.90
21678;DHT22;11000;50.360;7.582;2023-03-19T06:22:17;9.20;99.90
21678;DHT22;11000;50.360;7.582;2023-03-19T06:24:37;9.20;99.90
21678;DHT22;11000;50.360;7.582;2023-03-19T06:26:58;9.20;99.90
21678;DHT22;11000;50.360;7.582;2023-03-19T06:29:18;9.30;99.90
21678;DHT22;11000;50.360;7.582;2023-03-19T06:31:39;9.30;99.90
21678;DHT22;11000;50.360;7.582;2023-03-19T06:34:00;9.30;99.90
21678;DHT22;11000;50.360;7.582;2023-03-19T06:36:21;9.40;99.90
21678;DHT22;11000;50.360;7.582;2023-03-19T06:38:41;9.40;99.90
21678;DHT22;11000;50.360;7.582;2023-03-19T06:41:02;9.40;99.90
21678;DHT22;11000;50.360;7.582;2023-03-19T06:43:23;9.40;99.90
21678;DHT22;11000;50.360;7.582;2023-03-19T06:45:43;9.30;99.90
21678;DHT22;11000;50.360;7.582;2023-03-19T06:48:04;9.30;99.90
21678;DHT22;11000;50.360;7.582;2023-03-19T06:50:25;9.30;99.90
21678;DHT22;11000;50.360;7.582;2023-03-19T06:52:46;9.30;99.90
21678;DHT22;11000;50.360;7.582;2023-03-19T06:55:08;9.30;99.90
21678;DHT22;11000;50.360;7.582;2023-03-19T06:57:29;9.20;99.90
21678;DHT22;11000;50.360;7.582;2023-03-19T06:59:49;9.20;99.90
21678;DHT22;11000;50.360;7.582;2023-03-19T07:02:11;9.30;99.90
21678;DHT22;11000;50.360;7.582;2023-03-19T07:04:32;9.20;99.90
21678;DHT22;11000;50.360;7.582;2023-03-19T07:06:52;9.20;99.90
21678;DHT22;11000;50.360;7.582;2023-03-19T07:09:13;9.20;99.90
21678;DHT22;11000;50.360;7.582;2023-03-19T07:11:33;9.20;99.90
21678;DHT22;11000;50.360;7.582;2023-03-19T07:13:54;9.30;99.90
21678;DHT22;11000;50.360;7.582;2023-03-19T07:16:15;9.40;99.90
21678;DHT22;11000;50.360;7.582;2023-03-19T07:18:35;9.40;99.90
21678;DHT22;11000;50.360;7.582;2023-03-19T07:20:56;9.40;99.90
21678;DHT22;11000;50.360;7.582;2023-03-19T07:23:18;9.50;99.90
21678;DHT22;11000;50.360;7.582;2023-03-19T07:25:40;9.50;99.90
21678;DHT22;11000;50.360;7.582;2023-03-19T07:28:00;9.50;99.90
21678;DHT22;11000;50.360;7.582;2023-03-19T07:30:21;9.40;99.90
21678;DHT22;11000;50.360;7.582;2023-03-19T07:32:41;9.40;99.90
21678;DHT22;11000;50.360;7.582;2023-03-19T07:35:03;9.30;99.90
21678;DHT22;11000;50.360;7.582;2023-03-19T07:37:25;9.30;99.90
21678;DHT22;11000;50.360;7.582;2023-03-19T07:39:47;9.30;99.90
21678;DHT22;11000;50.360;7.582;2023-03-19T07:42:07;9.40;99.90
21678;DHT22;11000;50.360;7.582;2023-03-19T07:44:28;9.40;99.90
21678;DHT22;11000;50.360;7.582;2023-03-19T07:46:49;9.40;99.90
21678;DHT22;11000;50.360;7.582;2023-03-19T07:49:10;9.50;99.90
21678;DHT22;11000;50.360;7.582;2023-03-19T07:51:30;9.50;99.90
21678;DHT22;11000;50.360;7.582;2023-03-19T07:53:51;9.50;99.90
21678;DHT22;11000;50.360;7.582;2023-03-19T07:56:12;9.60;99.90
21678;DHT22;11000;50.360;7.582;2023-03-19T07:58:33;9.60;99.90
21678;DHT22;11000;50.360;7.582;2023-03-19T08:00:54;9.70;99.90
21678;DHT22;11000;50.360;7.582;2023-03-19T08:03:15;9.80;99.90
21678;DHT22;11000;50.360;7.582;2023-03-19T08:05:35;9.80;99.90
21678;DHT22;11000;50.360;7.582;2023-03-19T08:07:56;9.80;99.90
21678;DHT22;11000;50.360;7.582;2023-03-19T08:10:17;10.00;99.90
21678;DHT22;11000;50.360;7.582;2023-03-19T08:12:38;10.00;99.90
21678;DHT22;11000;50.360;7.582;2023-03-19T08:15:00;10.00;99.90
21678;DHT22;11000;50.360;7.582;2023-03-19T08:17:20;10.00;99.90
21678;DHT22;11000;50.360;7.582;2023-03-19T08:19:41;10.10;99.90
21678;DHT22;11000;50.360;7.582;2023-03-19T08:22:01;10.10;99.90
21678;DHT22;11000;50.360;7.582;2023-03-19T08:24:22;10.20;99.90
21678;DHT22;11000;50.360;7.582;2023-03-19T08:26:42;10.30;99.90
21678;DHT22;11000;50.360;7.582;2023-03-19T08:29:03;10.40;99.90
21678;DHT22;11000;50.360;7.582;2023-03-19T08:31:24;10.40;99.90
21678;DHT22;11000;50.360;7.582;2023-03-19T08:33:45;10.50;99.90
21678;DHT22;11000;50.360;7.582;2023-03-19T08:36:11;10.60;99.90
21678;DHT22;11000;50.360;7.582;2023-03-19T08:38:32;10.60;99.90
21678;DHT22;11000;50.360;7.582;2023-03-19T08:40:54;10.70;99.90
21678;DHT22;11000;50.360;7.582;2023-03-19T08:43:21;10.80;99.90
21678;DHT22;11000;50.360;7.582;2023-03-19T08:45:42;10.90;99.90
21678;DHT22;11000;50.360;7.582;2023-03-19T08:48:03;11.00;99.90
21678;DHT22;11000;50.360;7.582;2023-03-19T08:50:24;11.00;99.90
21678;DHT22;11000;50.360;7.582;2023-03-19T08:52:44;11.10;99.90
21678;DHT22;11000;50.360;7.582;2023-03-19T08:55:06;11.20;99.90
21678;DHT22;11000;50.360;7.582;2023-03-19T08:57:29;11.30;99.90
21678;DHT22;11000;50.360;7.582;2023-03-19T08:59:53;11.30;99.90
21678;DHT22;11000;50.360;7.582;2023-03-19T09:02:14;11.20;99.90
21678;DHT22;11000;50.360;7.582;2023-03-19T09:04:35;11.30;99.90
21678;DHT22;11000;50.360;7.582;2023-03-19T09:06:58;11.30;99.90
21678;DHT22;11000;50.360;7.582;2023-03-19T09:09:19;11.30;99.90
21678;DHT22;11000;50.360;7.582;2023-03-19T09:11:40;11.30;99.90
21678;DHT22;11000;50.360;7.582;2023-03-19T09:14:01;11.30;99.90
21678;DHT22;11000;50.360;7.582;2023-03-19T09:16:21;11.40;99.90
21678;DHT22;11000;50.360;7.582;2023-03-19T09:18:42;11.40;99.90
21678;DHT22;11000;50.360;7.582;2023-03-19T09:21:03;11.40;99.90
21678;DHT22;11000;50.360;7.582;2023-03-19T09:23:23;11.40;99.90
21678;DHT22;11000;50.360;7.582;2023-03-19T09:25:44;11.40;99.90
21678;DHT22;11000;50.360;7.582;2023-03-19T09:28:05;11.50;99.90
21678;DHT22;11000;50.360;7.582;2023-03-19T09:30:26;11.50;99.90
21678;DHT22;11000;50.360;7.582;2023-03-19T09:32:46;11.60;99.90
21678;DHT22;11000;50.360;7.582;2023-03-19T09:35:07;11.70;99.90
21678;DHT22;11000;50.360;7.582;2023-03-19T09:37:28;11.70;99.90
21678;DHT22;11000;50.360;7.582;2023-03-19T09:39:48;11.70;99.90
21678;DHT22;11000;50.360;7.582;2023-03-19T09:42:33;11.60;99.90
21678;DHT22;11000;50.360;7.582;2023-03-19T09:45:00;11.60;99.90
21678;DHT22;11000;50.360;7.582;2023-03-19T09:47:28;11.60;99.90
21678;DHT22;11000;50.360;7.582;2023-03-19T09:49:52;11.60;99.90
21678;DHT22;11000;50.360;7.582;2023-03-19T09:57:43;11.50;99.90
21678;DHT22;11000;50.360;7.582;2023-03-19T10:00:22;11.50;99.90
21678;DHT22;11000;50.360;7.582;2023-03-19T10:02:43;11.50;99.90
21678;DHT22;11000;50.360;7.582;2023-03-19T10:05:29;11.50;99.90
21678;DHT22;11000;50.360;7.582;2023-03-19T10:13:55;11.50;99.90
21678;DHT22;11000;50.360;7.582;2023-03-19T10:16:21;11.40;99.90
21678;DHT22;11000;50.360;7.582;2023-03-19T10:18:46;11.40;99.90
21678;DHT22;11000;50.360;7.582;2023-03-19T10:21:16;11.40;99.90
21678;DHT22;11000;50.360;7.582;2023-03-19T10:24:03;11.40;99.90
21678;DHT22;11000;50.360;7.582;2023-03-19T10:26:29;11.30;99.90
21678;DHT22;11000;50.360;7.582;2023-03-19T10:29:09;11.30;99.90
21678;DHT22;11000;50.360;7.582;2023-03-19T10:31:44;11.30;99.90
21678;DHT22;11000;50.360;7.582;2023-03-19T10:34:34;11.30;99.90
21678;DHT22;11000;50.360;7.582;2023-03-19T10:39:36;11.30;99.90
21678;DHT22;11000;50.360;7.582;2023-03-19T10:44:58;11.40;99.90
21678;DHT22;11000;50.360;7.582;2023-03-19T10:47:24;11.40;99.90
21678;DHT22;11000;50.360;7.582;2023-03-19T10:49:45;11.50;99.90
21678;DHT22;11000;50.360;7.582;2023-03-19T10:54:39;11.70;99.90
21678;DHT22;11000;50.360;7.582;2023-03-19T10:57:02;11.70;99.90
21678;DHT22;11000;50.360;7.582;2023-03-19T10:59:36;11.80;99.90
21678;DHT22;11000;50.360;7.582;2023-03-19T11:02:19;11.70;99.90
21678;DHT22;11000;50.360;7.582;2023-03-19T11:04:40;11.70;99.90
21678;DHT22;11000;50.360;7.582;2023-03-19T11:07:12;11.70;99.90
21678;DHT22;11000;50.360;7.582;2023-03-19T11:09:34;11.80;99.90
21678;DHT22;11000;50.360;7.582;2023-03-19T11:11:58;11.90;99.90
21678;DHT22;11000;50.360;7.582;2023-03-19T11:14:37;11.90;99.90
21678;DHT22;11000;50.360;7.582;2023-03-19T11:17:04;11.90;99.90
21678;DHT22;11000;50.360;7.582;2023-03-19T11:19:31;12.00;99.90
21678;DHT22;11000;50.360;7.582;2023-03-19T11:24:26;12.00;99.90
21678;DHT22;11000;50.360;7.582;2023-03-19T11:26:53;11.90;99.90
21678;DHT22;11000;50.360;7.582;2023-03-19T11:29:15;11.90;99.90
21678;DHT22;11000;50.360;7.582;2023-03-19T11:34:53;11.90;99.90
21678;DHT22;11000;50.360;7.582;2023-03-19T11:47:54;11.70;99.90
21678;DHT22;11000;50.360;7.582;2023-03-19T11:53:18;11.70;99.90
21678;DHT22;11000;50.360;7.582;2023-03-19T11:55:47;11.70;99.90
21678;DHT22;11000;50.360;7.582;2023-03-19T11:58:27;11.60;99.90
21678;DHT22;11000;50.360;7.582;2023-03-19T12:00:55;11.60;99.90
21678;DHT22;11000;50.360;7.582;2023-03-19T12:03:42;11.60;99.90
21678;DHT22;11000;50.360;7.582;2023-03-19T12:06:27;11.70;99.90
21678;DHT22;11000;50.360;7.582;2023-03-19T12:09:03;11.80;99.90
21678;DHT22;11000;50.360;7.582;2023-03-19T12:22:03;12.20;99.90
21678;DHT22;11000;50.360;7.582;2023-03-19T12:24:38;12.20;99.90
21678;DHT22;11000;50.360;7.582;2023-03-19T12:30:43;12.10;99.90
21678;DHT22;11000;50.360;7.582;2023-03-19T12:32:54;12.20;99.90
21678;DHT22;11000;50.360;7.582;2023-03-19T12:35:33;12.20;99.90
21678;DHT22;11000;50.360;7.582;2023-03-19T12:40:46;12.30;99.90
21678;DHT22;11000;50.360;7.582;2023-03-19T12:45:51;12.40;99.90
21678;DHT22;11000;50.360;7.582;2023-03-19T12:48:30;12.50;99.90
21678;DHT22;11000;50.360;7.582;2023-03-19T12:51:00;12.60;99.90
21678;DHT22;11000;50.360;7.582;2023-03-19T12:53:53;12.70;99.90
21678;DHT22;11000;50.360;7.582;2023-03-19T12:59:43;12.70;99.90
21678;DHT22;11000;50.360;7.582;2023-03-19T13:04:39;12.90;99.90
21678;DHT22;11000;50.360;7.582;2023-03-19T13:07:07;13.00;99.90
21678;DHT22;11000;50.360;7.582;2023-03-19T13:09:42;13.10;99.90
21678;DHT22;11000;50.360;7.582;2023-03-19T13:12:09;13.00;99.90
21678;DHT22;11000;50.360;7.582;2023-03-19T13:14:54;13.00;99.90
21678;DHT22;11000;50.360;7.582;2023-03-19T13:19:57;13.00;99.90
21678;DHT22;11000;50.360;7.582;2023-03-19T13:22:26;13.00;99.90
21678;DHT22;11000;50.360;7.582;2023-03-19T13:24:48;13.20;99.90
21678;DHT22;11000;50.360;7.582;2023-03-19T13:27:25;13.20;99.90
21678;DHT22;11000;50.360;7.582;2023-03-19T13:29:59;13.30;99.90
21678;DHT22;11000;50.360;7.582;2023-03-19T13:32:34;13.60;99.90
21678;DHT22;11000;50.360;7.582;2023-03-19T13:37:41;13.70;99.90
21678;DHT22;11000;50.360;7.582;2023-03-19T13:40:03;13.70;99.90
21678;DHT22;11000;50.360;7.582;2023-03-19T13:42:38;13.60;99.90
21678;DHT22;11000;50.360;7.582;2023-03-19T13:45:34;13.70;99.90
21678;DHT22;11000;50.360;7.582;2023-03-19T13:47:57;13.40;99.90
21678;DHT22;11000;50.360;7.582;2023-03-19T13:52:48;13.10;99.90
21678;DHT22;11000;50.360;7.582;2023-03-19T13:55:51;13.00;99.90
21678;DHT22;11000;50.360;7.582;2023-03-19T13:58:18;12.90;99.90
21678;DHT22;11000;50.360;7.582;2023-03-19T14:00:58;12.80;99.90
21678;DHT22;11000;50.360;7.582;2023-03-19T14:03:22;12.70;99.90
21678;DHT22;11000;50.360;7.582;2023-03-19T14:05:46;12.60;99.90
21678;DHT22;11000;50.360;7.582;2023-03-19T14:08:28;12.60;99.90
21678;DHT22;11000;50.360;7.582;2023-03-19T14:10:52;12.70;99.90
21678;DHT22;11000;50.360;7.582;2023-03-19T14:13:39;12.80;99.90
21678;DHT22;11000;50.360;7.582;2023-03-19T14:16:06;13.00;99.90
21678;DHT22;11000;50.360;7.582;2023-03-19T14:18:28;13.30;99.90
21678;DHT22;11000;50.360;7.582;2023-03-19T14:21:00;13.50;99.90
21678;DHT22;11000;50.360;7.582;2023-03-19T14:23:31;13.80;99.90
21678;DHT22;11000;50.360;7.582;2023-03-19T14:26:23;13.90;99.90
21678;DHT22;11000;50.360;7.582;2023-03-19T14:31:24;13.70;99.90
21678;DHT22;11000;50.360;7.582;2023-03-19T14:33:57;13.90;99.90
21678;DHT22;11000;50.360;7.582;2023-03-19T14:36:19;14.10;99.90
21678;DHT22;11000;50.360;7.582;2023-03-19T14:38:51;14.20;99.90
21678;DHT22;11000;50.360;7.582;2023-03-19T14:41:17;14.30;99.90
21678;DHT22;11000;50.360;7.582;2023-03-19T14:52:29;14.10;99.90
21678;DHT22;11000;50.360;7.582;2023-03-19T14:55:02;14.00;99.90
21678;DHT22;11000;50.360;7.582;2023-03-19T14:57:29;14.10;99.90
21678;DHT22;11000;50.360;7.582;2023-03-19T14:59:50;14.20;99.90
21678;DHT22;11000;50.360;7.582;2023-03-19T15:02:34;14.40;99.90
21678;DHT22;11000;50.360;7.582;2023-03-19T15:04:57;14.50;99.90
21678;DHT22;11000;50.360;7.582;2023-03-19T15:07:21;14.50;99.90
21678;DHT22;11000;50.360;7.582;2023-03-19T15:09:45;14.50;99.90
21678;DHT22;11000;50.360;7.582;2023-03-19T15:12:27;14.50;99.90
21678;DHT22;11000;50.360;7.582;2023-03-19T15:15:07;14.20;99.90
21678;DHT22;11000;50.360;7.582;2023-03-19T15:17:33;14.00;99.90
21678;DHT22;11000;50.360;7.582;2023-03-19T15:19:54;13.80;99.90
21678;DHT22;11000;50.360;7.582;2023-03-19T15:22:34;13.80;99.90
21678;DHT22;11000;50.360;7.582;2023-03-19T15:25:16;13.80;99.90
21678;DHT22;11000;50.360;7.582;2023-03-19T15:27:37;13.80;99.90
21678;DHT22;11000;50.360;7.582;2023-03-19T15:29:58;13.80;99.90
21678;DHT22;11000;50.360;7.582;2023-03-19T15:32:36;13.80;99.90
21678;DHT22;11000;50.360;7.582;2023-03-19T15:34:58;13.90;99.90
21678;DHT22;11000;50.360;7.582;2023-03-19T15:37:18;13.80;99.90
21678;DHT22;11000;50.360;7.582;2023-03-19T15:39:49;13.70;99.90
21678;DHT22;11000;50.360;7.582;2023-03-19T15:42:11;13.70;99.90
21678;DHT22;11000;50.360;7.582;2023-03-19T15:44:37;13.60;99.90
21678;DHT22;11000;50.360;7.582;2023-03-19T15:47:02;13.60;99.90
21678;DHT22;11000;50.360;7.582;2023-03-19T15:49:30;13.70;99.90
21678;DHT22;11000;50.360;7.582;2023-03-19T15:51:57;13.70;99.90
21678;DHT22;11000;50.360;7.582;2023-03-19T15:54:21;13.80;99.90
21678;DHT22;11000;50.360;7.582;2023-03-19T15:56:42;13.80;99.90
21678;DHT22;11000;50.360;7.582;2023-03-19T15:59:04;13.70;99.90
21678;DHT22;11000;50.360;7.582;2023-03-19T16:01:30;13.70;99.90
21678;DHT22;11000;50.360;7.582;2023-03-19T16:04:04;13.70;99.90
21678;DHT22;11000;50.360;7.582;2023-03-19T16:06:28;13.70;99.90
21678;DHT22;11000;50.360;7.582;2023-03-19T16:08:51;13.70;99.90
21678;DHT22;11000;50.360;7.582;2023-03-19T16:11:33;13.60;99.90
21678;DHT22;11000;50.360;7.582;2023-03-19T16:13:58;13.60;99.90
21678;DHT22;11000;50.360;7.582;2023-03-19T16:16:19;13.60;99.90
21678;DHT22;11000;50.360;7.582;2023-03-19T16:18:46;13.50;99.90
21678;DHT22;11000;50.360;7.582;2023-03-19T16:21:23;13.50;99.90
21678;DHT22;11000;50.360;7.582;2023-03-19T16:23:57;13.40;99.90
21678;DHT22;11000;50.360;7.582;2023-03-19T16:26:35;13.40;99.90
21678;DHT22;11000;50.360;7.582;2023-03-19T16:31:28;13.40;99.90
21678;DHT22;11000;50.360;7.582;2023-03-19T16:33:51;13.40;99.90
21678;DHT22;11000;50.360;7.582;2023-03-19T16:36:12;13.40;99.90
21678;DHT22;11000;50.360;7.582;2023-03-19T16:38:42;13.30;99.90
21678;DHT22;11000;50.360;7.582;2023-03-19T16:41:17;13.30;99.90
21678;DHT22;11000;50.360;7.582;2023-03-19T16:43:46;13.30;99.90
21678;DHT22;11000;50.360;7.582;2023-03-19T16:46:10;13.30;99.90